createdAt,value
2023-02-23T00:00:34.982Z,8.90
2023-02-23T00:03:03.892Z,8.90
2023-02-23T00:05:37.595Z,8.90
2023-02-23T00:08:06.971Z,8.90
2023-02-23T00:10:36.996Z,8.90
2023-02-23T00:13:06.816Z,8.90
2023-02-23T00:15:39.897Z,8.80
2023-02-23T00:18:10.320Z,8.80
2023-02-23T00:20:48.237Z,8.90
2023-02-23T00:23:17.324Z,8.80
2023-02-23T00:25:47.151Z,8.80
2023-02-23T00:28:17.813Z,8.80
2023-02-23T00:30:49.955Z,8.80
2023-02-23T00:33:20.571Z,8.90
2023-02-23T00:35:57.096Z,8.80
2023-02-23T00:38:26.846Z,8.80
2023-02-23T00:40:58.558Z,8.80
2023-02-23T00:43:28.431Z,8.80
2023-02-23T00:46:07.434Z,8.80
2023-02-23T00:48:39.630Z,8.80
2023-02-23T00:51:08.770Z,8.80
2023-02-23T00:53:39.584Z,8.80
2023-02-23T00:56:18.596Z,8.80
2023-02-23T00:58:51.310Z,8.80
2023-02-23T01:01:25.812Z,8.80
2023-02-23T01:04:01.482Z,8.80
2023-02-23T01:06:35.270Z,8.80
2023-02-23T01:09:10.187Z,8.80
2023-02-23T01:11:41.644Z,8.80
2023-02-23T01:14:12.702Z,8.80
2023-02-23T01:16:44.438Z,8.80
2023-02-23T01:19:16.029Z,8.80
2023-02-23T01:21:45.855Z,8.80
2023-02-23T01:24:16.123Z,8.80
2023-02-23T01:26:47.058Z,8.80
2023-02-23T01:29:19.964Z,8.80
2023-02-23T01:31:52.299Z,8.80
2023-02-23T01:34:22.751Z,8.90
2023-02-23T01:36:53.896Z,8.80
2023-02-23T01:39:23.341Z,8.80
2023-02-23T01:41:54.765Z,8.80
2023-02-23T01:45:24.303Z,8.80
2023-02-23T01:47:58.167Z,8.80
2023-02-23T01:50:30.817Z,8.80
2023-02-23T01:53:01.268Z,8.80
2023-02-23T01:55:31.592Z,8.90
2023-02-23T01:58:07.748Z,8.80
2023-02-23T02:00:56.587Z,8.80
2023-02-23T02:03:31.344Z,8.90
2023-02-23T02:06:02.861Z,8.80
2023-02-23T02:08:32.813Z,8.90
2023-02-23T02:11:08.536Z,8.80
2023-02-23T02:13:38.759Z,8.90
2023-02-23T02:16:42.538Z,8.90
2023-02-23T02:19:46.159Z,8.90
2023-02-23T02:22:49.254Z,8.80
2023-02-23T02:25:38.761Z,8.80
2023-02-23T02:28:45.031Z,8.80
2023-02-23T02:31:52.922Z,8.80
2023-02-23T02:34:57.694Z,8.90
2023-02-23T02:37:47.912Z,8.80
2023-02-23T02:40:23.694Z,8.80
2023-02-23T02:43:10.891Z,8.80
2023-02-23T02:45:47.192Z,8.80
2023-02-23T02:48:25.905Z,8.80
2023-02-23T02:50:57.568Z,8.80
2023-02-23T02:53:38.192Z,8.80
2023-02-23T02:56:09.338Z,8.80
2023-02-23T02:58:43.857Z,8.80
2023-02-23T03:01:35.652Z,8.70
2023-02-23T03:04:37.448Z,8.80
2023-02-23T03:07:29.823Z,8.80
2023-02-23T03:10:24.716Z,8.90
2023-02-23T03:13:21.072Z,8.80
2023-02-23T03:16:14.352Z,8.80
2023-02-23T03:19:14.413Z,8.80
2023-02-23T03:22:10.460Z,8.80
2023-02-23T03:25:01.862Z,8.80
2023-02-23T03:28:00.750Z,8.80
2023-02-23T03:30:58.237Z,8.80
2023-02-23T03:33:53.964Z,8.70
2023-02-23T03:36:45.037Z,8.70
2023-02-23T03:39:39.013Z,8.70
2023-02-23T03:42:29.902Z,8.70
2023-02-23T03:45:23.447Z,8.70
2023-02-23T03:48:12.514Z,8.70
2023-02-23T03:51:02.149Z,8.70
2023-02-23T03:53:53.833Z,8.60
2023-02-23T03:56:44.821Z,8.60
2023-02-23T03:59:34.852Z,8.60
2023-02-23T04:02:25.551Z,8.60
2023-02-23T04:05:15.196Z,8.60
2023-02-23T04:08:01.422Z,8.60
2023-02-23T04:10:49.823Z,8.60
2023-02-23T04:13:21.004Z,8.60
2023-02-23T04:15:51.870Z,8.50
2023-02-23T04:18:26.342Z,8.50
2023-02-23T04:20:55.929Z,8.50
2023-02-23T04:23:25.420Z,8.50
2023-02-23T04:25:54.494Z,8.60
2023-02-23T04:28:23.827Z,8.50
2023-02-23T04:30:53.057Z,8.50
2023-02-23T04:33:25.582Z,8.50
2023-02-23T04:35:55.293Z,8.50
2023-02-23T04:38:24.725Z,8.50
2023-02-23T04:40:53.697Z,8.50
2023-02-23T04:43:22.276Z,8.50
2023-02-23T04:45:52.360Z,8.50
2023-02-23T04:48:23.556Z,8.40
2023-02-23T04:50:54.482Z,8.40
2023-02-23T04:53:23.571Z,8.40
2023-02-23T04:55:51.968Z,8.40
2023-02-23T04:58:20.280Z,8.40
2023-02-23T05:00:49.442Z,8.40
2023-02-23T05:03:18.605Z,8.40
2023-02-23T05:05:48.429Z,8.40
2023-02-23T05:08:16.699Z,8.30
2023-02-23T05:10:45.093Z,8.30
2023-02-23T05:13:13.656Z,8.30
2023-02-23T05:15:41.974Z,8.30
2023-02-23T05:18:10.786Z,8.30
2023-02-23T05:20:39.314Z,8.30
2023-02-23T05:23:09.112Z,8.30
2023-02-23T05:25:39.543Z,8.30
2023-02-23T05:28:08.080Z,8.30
2023-02-23T05:30:36.666Z,8.30
2023-02-23T05:33:05.389Z,8.20
2023-02-23T05:35:33.622Z,8.30
2023-02-23T05:38:01.838Z,8.30
2023-02-23T05:40:32.803Z,8.30
2023-02-23T05:43:01.636Z,8.30
2023-02-23T05:45:30.451Z,8.30
2023-02-23T05:47:59.291Z,8.30
2023-02-23T05:50:28.857Z,8.30
2023-02-23T05:52:57.211Z,8.20
2023-02-23T05:55:25.811Z,8.20
2023-02-23T05:57:56.160Z,8.20
2023-02-23T06:00:31.766Z,8.20
2023-02-23T06:03:01.387Z,8.20
2023-02-23T06:05:32.315Z,8.20
2023-02-23T06:08:10.729Z,8.20
2023-02-23T06:10:40.552Z,8.10
2023-02-23T06:13:15.692Z,8.10
2023-02-23T06:15:50.189Z,8.10
2023-02-23T06:18:22.774Z,8.10
2023-02-23T06:20:54.219Z,8.10
2023-02-23T06:23:32.659Z,8.10
2023-02-23T06:26:10.657Z,8.20
2023-02-23T06:28:59.659Z,8.20
2023-02-23T06:31:29.895Z,8.10
2023-02-23T06:34:00.645Z,8.10
2023-02-23T06:36:31.807Z,8.10
2023-02-23T06:39:04.464Z,8.20
2023-02-23T06:41:36.792Z,8.10
2023-02-23T06:44:11.263Z,8.10
2023-02-23T06:46:41.550Z,8.10
2023-02-23T06:49:17.346Z,8.10
2023-02-23T06:51:50.037Z,8.10
2023-02-23T06:54:30.447Z,8.20
2023-02-23T06:57:07.372Z,8.20
2023-02-23T06:59:44.003Z,8.20
2023-02-23T07:02:24.601Z,8.20
2023-02-23T07:05:13.905Z,8.20
2023-02-23T07:08:10.052Z,8.20
2023-02-23T07:10:49.933Z,8.20
2023-02-23T07:13:31.849Z,8.20
2023-02-23T07:16:05.033Z,8.20
2023-02-23T07:18:49.806Z,8.20
2023-02-23T07:21:21.486Z,8.20
2023-02-23T07:23:51.684Z,8.20
2023-02-23T07:26:24.986Z,8.30
2023-02-23T07:28:59.191Z,8.20
2023-02-23T07:31:42.986Z,8.30
2023-02-23T07:34:18.249Z,8.30
2023-02-23T07:36:48.793Z,8.30
2023-02-23T07:39:21.579Z,8.30
2023-02-23T07:41:56.099Z,8.30
2023-02-23T07:44:26.724Z,8.40
2023-02-23T07:47:05.147Z,8.40
2023-02-23T07:49:38.312Z,8.40
2023-02-23T07:52:08.653Z,8.40
2023-02-23T07:54:39.853Z,8.40
2023-02-23T07:57:11.364Z,8.50
2023-02-23T07:59:40.122Z,8.50
2023-02-23T08:02:15.134Z,8.50
2023-02-23T08:04:54.724Z,8.50
2023-02-23T08:07:30.116Z,8.50
2023-02-23T08:10:12.488Z,8.50
2023-02-23T08:12:45.754Z,8.50
2023-02-23T08:15:21.588Z,8.50
2023-02-23T08:17:59.200Z,8.50
2023-02-23T08:20:28.994Z,8.50
2023-02-23T08:23:00.630Z,8.50
2023-02-23T08:25:33.873Z,8.60
2023-02-23T08:28:04.947Z,8.50
2023-02-23T08:30:40.974Z,8.60
2023-02-23T08:33:37.074Z,8.60
2023-02-23T08:36:07.340Z,8.70
2023-02-23T08:38:41.132Z,8.70
2023-02-23T08:41:10.995Z,8.70
2023-02-23T08:43:40.497Z,8.80
2023-02-23T08:46:10.782Z,8.80
2023-02-23T08:48:41.662Z,8.80
2023-02-23T08:51:12.072Z,8.80
2023-02-23T08:53:42.037Z,8.80
2023-02-23T08:56:16.021Z,8.80
2023-02-23T08:58:46.565Z,8.90
2023-02-23T09:01:23.350Z,9.00
2023-02-23T09:04:11.424Z,9.10
2023-02-23T09:06:45.494Z,9.10
2023-02-23T09:09:18.077Z,9.10
2023-02-23T09:11:49.145Z,9.20
2023-02-23T09:14:24.659Z,9.10
2023-02-23T09:16:56.584Z,9.20
2023-02-23T09:19:33.570Z,9.20
2023-02-23T09:22:07.006Z,9.40
2023-02-23T09:24:42.326Z,9.50
2023-02-23T09:27:15.485Z,9.70
2023-02-23T09:29:47.163Z,9.70
2023-02-23T09:32:17.794Z,9.70
2023-02-23T09:34:49.181Z,9.70
2023-02-23T09:37:22.506Z,9.80
2023-02-23T09:39:53.996Z,9.80
2023-02-23T09:42:35.950Z,9.90
2023-02-23T09:45:16.660Z,9.80
2023-02-23T09:48:00.215Z,9.90
2023-02-23T09:50:36.213Z,9.90
2023-02-23T09:53:10.346Z,9.90
2023-02-23T09:55:42.932Z,10.00
2023-02-23T09:58:21.725Z,10.00
2023-02-23T10:01:00.361Z,10.00
2023-02-23T10:03:33.969Z,10.10
2023-02-23T10:06:09.476Z,10.10
2023-02-23T10:08:57.272Z,10.20
2023-02-23T10:11:36.358Z,10.20
2023-02-23T10:14:29.977Z,10.30
2023-02-23T10:17:11.708Z,10.30
2023-02-23T10:19:46.119Z,10.40
2023-02-23T10:22:22.211Z,10.50
2023-02-23T10:24:58.814Z,10.60
2023-02-23T10:27:35.295Z,10.70
2023-02-23T10:30:17.431Z,10.70
2023-02-23T10:32:56.715Z,10.70
2023-02-23T10:35:34.027Z,10.80
2023-02-23T10:38:06.880Z,10.90
2023-02-23T10:40:38.257Z,11.00
2023-02-23T10:43:10.668Z,10.90
2023-02-23T10:45:49.394Z,11.10
2023-02-23T10:48:23.416Z,11.20
2023-02-23T10:51:03.422Z,11.40
2023-02-23T10:53:42.653Z,11.40
2023-02-23T10:56:17.895Z,11.60
2023-02-23T10:58:50.615Z,11.70
2023-02-23T11:02:01.324Z,11.70
2023-02-23T11:04:40.568Z,11.70
2023-02-23T11:07:21.597Z,12.00
2023-02-23T11:10:01.302Z,12.20
2023-02-23T11:12:42.428Z,12.10
2023-02-23T11:15:54.466Z,12.00
2023-02-23T11:18:29.459Z,12.00
2023-02-23T11:21:12.583Z,12.00
2023-02-23T11:26:45.734Z,12.10
2023-02-23T11:29:30.099Z,12.20
2023-02-23T11:32:10.813Z,12.20
2023-02-23T11:34:54.781Z,12.20
2023-02-23T11:37:41.819Z,12.10
2023-02-23T11:40:26.509Z,12.20
2023-02-23T11:43:14.680Z,12.20
2023-02-23T11:45:57.112Z,12.30
2023-02-23T11:48:31.581Z,12.20
2023-02-23T11:51:09.208Z,12.10
2023-02-23T11:53:42.383Z,12.10
2023-02-23T11:56:31.076Z,12.00
2023-02-23T11:59:05.884Z,12.00
2023-02-23T12:01:47.236Z,11.90
2023-02-23T12:04:32.955Z,11.80
2023-02-23T12:07:27.544Z,11.70
2023-02-23T12:10:04.895Z,11.70
2023-02-23T12:12:43.842Z,11.70
2023-02-23T12:15:23.271Z,11.80
2023-02-23T12:18:01.718Z,11.80
2023-02-23T12:20:51.986Z,11.90
2023-02-23T12:23:30.493Z,12.00
2023-02-23T12:26:07.694Z,12.10
2023-02-23T12:28:44.568Z,12.00
2023-02-23T12:31:38.471Z,12.10
2023-02-23T12:34:20.566Z,12.20
2023-02-23T12:36:58.858Z,12.30
2023-02-23T12:39:32.980Z,12.40
2023-02-23T12:42:10.736Z,12.40
2023-02-23T12:44:50.790Z,12.60
2023-02-23T12:47:31.354Z,12.40
2023-02-23T12:50:07.946Z,12.50
2023-02-23T12:52:46.286Z,12.40
2023-02-23T12:55:15.841Z,12.50
2023-02-23T12:57:50.843Z,12.50
2023-02-23T13:00:45.278Z,12.50
2023-02-23T13:03:57.753Z,12.40
2023-02-23T13:06:43.348Z,12.40
2023-02-23T13:09:22.921Z,12.20
2023-02-23T13:12:07.906Z,12.10
2023-02-23T13:15:00.012Z,12.00
2023-02-23T13:17:41.472Z,11.90
2023-02-23T13:20:24.302Z,11.90
2023-02-23T13:23:04.650Z,11.80
2023-02-23T13:25:43.574Z,11.80
2023-02-23T13:28:20.655Z,11.60
2023-02-23T13:30:56.844Z,11.70
2023-02-23T13:33:43.215Z,11.60
2023-02-23T13:36:15.584Z,11.60
2023-02-23T13:38:53.943Z,11.70
2023-02-23T13:41:34.257Z,11.60
2023-02-23T13:44:10.916Z,11.70
2023-02-23T13:46:54.446Z,11.60
2023-02-23T13:49:39.811Z,11.60
2023-02-23T13:52:31.868Z,11.60
2023-02-23T13:55:09.158Z,11.50
2023-02-23T13:57:53.035Z,11.50
2023-02-23T14:00:23.701Z,11.50
2023-02-23T14:03:11.808Z,11.50
2023-02-23T14:05:45.477Z,11.50
2023-02-23T14:08:25.324Z,11.50
2023-02-23T14:11:03.929Z,11.50
2023-02-23T14:13:39.057Z,11.40
2023-02-23T14:16:35.137Z,11.50
2023-02-23T14:19:39.486Z,11.50
2023-02-23T14:22:23.664Z,11.60
2023-02-23T14:25:32.400Z,11.70
2023-02-23T14:28:07.530Z,11.70
2023-02-23T14:30:51.307Z,11.70
2023-02-23T14:33:43.128Z,11.70
2023-02-23T14:36:40.763Z,11.70
2023-02-23T14:39:18.979Z,11.70
2023-02-23T14:41:51.536Z,11.70
2023-02-23T14:44:29.818Z,11.60
2023-02-23T14:47:04.117Z,11.50
2023-02-23T14:49:41.408Z,11.40
2023-02-23T14:52:18.821Z,11.50
2023-02-23T14:54:49.029Z,11.50
2023-02-23T14:57:24.390Z,11.50
2023-02-23T15:00:02.597Z,11.40
2023-02-23T15:02:35.516Z,11.50
2023-02-23T15:05:26.663Z,11.60
2023-02-23T15:07:59.255Z,11.50
2023-02-23T15:10:32.234Z,11.60
2023-02-23T15:13:03.899Z,11.60
2023-02-23T15:15:42.787Z,11.50
2023-02-23T15:18:26.148Z,11.50
2023-02-23T15:20:55.098Z,11.60
2023-02-23T15:23:26.934Z,11.60
2023-02-23T15:25:55.785Z,11.60
2023-02-23T15:28:30.436Z,11.60
2023-02-23T15:31:13.979Z,11.60
2023-02-23T15:33:45.214Z,11.60
2023-02-23T15:36:22.470Z,11.60
2023-02-23T15:38:56.892Z,11.40
2023-02-23T15:41:34.773Z,11.30
2023-02-23T15:44:12.222Z,11.30
2023-02-23T15:46:53.165Z,11.20
2023-02-23T15:49:29.524Z,11.10
2023-02-23T15:52:01.485Z,11.10
2023-02-23T15:54:37.344Z,11.10
2023-02-23T15:57:16.585Z,11.10
2023-02-23T15:59:55.000Z,11.00
2023-02-23T16:02:29.923Z,10.90
2023-02-23T16:05:32.765Z,10.90
2023-02-23T16:08:09.162Z,10.90
2023-02-23T16:10:51.420Z,10.90
2023-02-23T16:13:24.969Z,10.90
2023-02-23T16:16:00.329Z,10.80
2023-02-23T16:18:45.824Z,10.80
2023-02-23T16:21:27.190Z,10.80
2023-02-23T16:24:06.469Z,10.70
2023-02-23T16:26:50.497Z,10.80
2023-02-23T16:29:33.493Z,10.80
2023-02-23T16:32:19.576Z,10.80
2023-02-23T16:35:02.652Z,10.70
2023-02-23T16:37:36.210Z,10.70
2023-02-23T16:40:11.128Z,10.60
2023-02-23T16:42:48.298Z,10.60
2023-02-23T16:45:18.989Z,10.50
2023-02-23T16:48:13.121Z,10.50
2023-02-23T16:50:59.700Z,10.50
2023-02-23T16:53:42.492Z,10.50
2023-02-23T16:56:26.395Z,10.50
2023-02-23T16:59:10.905Z,10.40
2023-02-23T17:01:48.623Z,10.40
2023-02-23T17:04:20.695Z,10.40
2023-02-23T17:06:56.454Z,10.30
2023-02-23T17:09:32.215Z,10.20
2023-02-23T17:12:01.648Z,10.00
2023-02-23T17:14:38.319Z,10.10
2023-02-23T17:17:53.308Z,10.10
2023-02-23T17:20:28.350Z,10.00
2023-02-23T17:23:15.034Z,10.10
2023-02-23T17:26:02.748Z,10.00
2023-02-23T17:28:41.965Z,10.00
2023-02-23T17:31:39.354Z,10.00
2023-02-23T17:34:21.655Z,9.90
2023-02-23T17:37:31.665Z,10.00
2023-02-23T17:40:38.524Z,9.90
2023-02-23T17:43:09.373Z,9.90
2023-02-23T17:45:44.588Z,9.90
2023-02-23T17:48:14.613Z,9.80
2023-02-23T17:50:47.650Z,9.80
2023-02-23T17:53:19.396Z,9.80
2023-02-23T17:56:02.167Z,9.80
2023-02-23T17:58:32.961Z,9.80
2023-02-23T18:01:03.805Z,9.70
2023-02-23T18:03:38.533Z,9.70
2023-02-23T18:06:14.872Z,9.70
2023-02-23T18:08:45.920Z,9.70
2023-02-23T18:11:25.104Z,9.70
2023-02-23T18:13:58.926Z,9.70
2023-02-23T18:16:29.949Z,9.70
2023-02-23T18:19:18.218Z,9.60
2023-02-23T18:22:02.065Z,9.60
2023-02-23T18:24:38.499Z,9.60
2023-02-23T18:27:09.408Z,9.60
2023-02-23T18:29:44.866Z,9.60
2023-02-23T18:32:25.202Z,9.60
2023-02-23T18:35:09.193Z,9.50
2023-02-23T18:37:38.390Z,9.50
2023-02-23T18:40:08.451Z,9.50
2023-02-23T18:45:17.469Z,9.40
2023-02-23T18:47:47.796Z,9.40
2023-02-23T18:50:19.552Z,9.40
2023-02-23T18:52:59.463Z,9.40
2023-02-23T18:55:34.244Z,9.40
2023-02-23T18:58:06.239Z,9.40
2023-02-23T19:00:40.658Z,9.40
2023-02-23T19:03:10.123Z,9.40
2023-02-23T19:05:39.043Z,9.40
2023-02-23T19:08:14.570Z,9.40
2023-02-23T19:10:44.171Z,9.30
2023-02-23T19:13:14.308Z,9.40
2023-02-23T19:15:44.034Z,9.30
2023-02-23T19:18:12.992Z,9.30
2023-02-23T19:20:46.499Z,9.30
2023-02-23T19:23:14.984Z,9.20
2023-02-23T19:25:48.675Z,9.20
2023-02-23T19:28:19.726Z,9.20
2023-02-23T19:30:51.191Z,9.20
2023-02-23T19:33:21.526Z,9.20
2023-02-23T19:35:51.518Z,9.20
2023-02-23T19:38:20.460Z,9.20
2023-02-23T19:40:50.421Z,9.20
2023-02-23T19:43:21.311Z,9.20
2023-02-23T19:45:49.923Z,9.20
2023-02-23T19:48:22.736Z,9.10
2023-02-23T19:51:05.563Z,9.10
2023-02-23T19:53:41.589Z,9.10
2023-02-23T19:56:13.201Z,9.10
2023-02-23T19:58:54.145Z,9.10
2023-02-23T20:01:30.286Z,9.10
2023-02-23T20:04:06.634Z,9.10
2023-02-23T20:06:48.166Z,9.10
2023-02-23T20:09:18.752Z,9.10
2023-02-23T20:12:03.751Z,9.10
2023-02-23T20:14:34.762Z,9.00
2023-02-23T20:17:15.086Z,9.00
2023-02-23T20:19:43.928Z,9.00
2023-02-23T20:22:15.825Z,8.90
2023-02-23T20:24:51.471Z,8.90
2023-02-23T20:27:23.066Z,8.90
2023-02-23T20:29:54.120Z,8.80
2023-02-23T20:32:22.649Z,8.80
2023-02-23T20:34:51.859Z,8.80
2023-02-23T20:37:22.345Z,8.70
2023-02-23T20:39:54.323Z,8.70
2023-02-23T20:42:27.232Z,8.60
2023-02-23T20:45:01.888Z,8.60
2023-02-23T20:47:36.192Z,8.60
2023-02-23T20:50:05.761Z,8.50
2023-02-23T20:52:35.476Z,8.50
2023-02-23T20:55:19.924Z,8.50
2023-02-23T20:57:50.693Z,8.30
2023-02-23T21:00:32.788Z,8.40
2023-02-23T21:03:06.182Z,8.40
2023-02-23T21:05:42.053Z,8.20
2023-02-23T21:08:13.623Z,8.30
2023-02-23T21:10:51.009Z,8.20
2023-02-23T21:13:22.365Z,8.20
2023-02-23T21:16:01.959Z,8.20
2023-02-23T21:18:34.671Z,8.20
2023-02-23T21:21:13.391Z,8.20
2023-02-23T21:23:51.478Z,8.20
2023-02-23T21:26:21.737Z,8.20
2023-02-23T21:29:15.300Z,8.20
2023-02-23T21:32:28.512Z,8.20
2023-02-23T21:35:07.886Z,8.20
2023-02-23T21:37:52.325Z,8.10
2023-02-23T21:40:22.751Z,8.00
2023-02-23T21:43:06.962Z,8.00
2023-02-23T21:45:50.459Z,8.00
2023-02-23T21:48:33.936Z,8.00
2023-02-23T21:51:09.517Z,8.00
2023-02-23T21:54:02.777Z,8.00
2023-02-23T21:57:10.643Z,8.00
2023-02-23T21:59:39.937Z,8.00
2023-02-23T22:02:08.996Z,8.00
2023-02-23T22:05:08.849Z,7.90
2023-02-23T22:07:46.227Z,7.90
2023-02-23T22:10:23.777Z,7.80
2023-02-23T22:12:58.094Z,7.80
2023-02-23T22:15:46.349Z,7.80
2023-02-23T22:18:33.402Z,7.80
2023-02-23T22:21:13.162Z,7.80
2023-02-23T22:23:44.333Z,7.70
2023-02-23T22:26:13.507Z,7.70
2023-02-23T22:28:45.273Z,7.70
2023-02-23T22:31:25.928Z,7.70
2023-02-23T22:34:04.492Z,7.80
2023-02-23T22:36:33.955Z,7.80
2023-02-23T22:39:10.572Z,7.70
2023-02-23T22:41:42.579Z,7.70
2023-02-23T22:44:20.696Z,7.70
2023-02-23T22:47:00.929Z,7.70
2023-02-23T22:49:36.729Z,7.60
2023-02-23T22:52:08.802Z,7.70
2023-02-23T22:54:40.652Z,7.60
2023-02-23T22:57:10.050Z,7.50
2023-02-23T22:59:38.751Z,7.60
2023-02-23T23:02:07.166Z,7.50
2023-02-23T23:04:35.772Z,7.40
2023-02-23T23:07:06.384Z,7.40
2023-02-23T23:09:36.370Z,7.40
2023-02-23T23:12:06.627Z,7.30
2023-02-23T23:14:35.684Z,7.30
2023-02-23T23:17:04.410Z,7.30
2023-02-23T23:19:39.189Z,7.30
2023-02-23T23:22:13.650Z,7.20
2023-02-23T23:24:46.337Z,7.20
2023-02-23T23:27:16.571Z,7.20
2023-02-23T23:29:47.214Z,7.20
2023-02-23T23:32:18.144Z,7.10
2023-02-23T23:34:49.316Z,7.10
2023-02-23T23:37:19.258Z,7.00
2023-02-23T23:39:59.594Z,7.00
2023-02-23T23:42:30.064Z,7.10
2023-02-23T23:44:58.826Z,7.00
2023-02-23T23:47:30.821Z,7.00
2023-02-23T23:49:59.378Z,7.00
2023-02-23T23:52:30.406Z,7.00
2023-02-23T23:54:58.987Z,7.00
2023-02-23T23:57:33.155Z,7.00
